Portada
METAR-TAF:

METAR-TAF

Aeroports :

Txità, Rússia

latitud: 52-05N, longitud: 113-29E, altitud: 685 m

Observació

L'informe es va fer fa 42 minuts, a les 19:30 UTC
Vent 6 kt del Sud/Sud-Oest
Temperatura 13°C
Humitat 58%
Pressió 1004 hPa
Visibilitat 10 km o més

METAR: UIAA 261930Z 21003MPS 9999 NSC 13/05 Q1004 R29/CLRD70 NOSIG RMK QFE695/0926

Hora: 05:12 (20:12 UTC)

Pronòstic

L'informe es va fer fa 3 hores i 12 minuts, a les 17:00 UTC
Pronòstic vàlid del 26 a les 18 UTC al 27 a les 18 UTC
Vent 10 kt del Sud/Sud-Oest amb ràfegues de 19 kt
Visibilitat 10 km o més
Núvols disperses a una alçada de 4000 ft, Cumulonimbus.
Temporalment
l' 26 a les 18 UTC al 27 a les 06 UTC
Vent 6 kt del Oest amb ràfegues de 16 kt
Temporalment
l' 27 a les 06 UTC al 27 a les 18 UTC
Vent 19 kt amb direcció variable
tempesta, pluja

TAF: UIAA 261700Z 2618/2718 20005G10MPS 9999 SCT040CB TEMPO 2618/2706 26003G08MPS TEMPO 2706/2718 VRB10MPS -TSRA

Observacions i pronòstics meteorològics de més de 4000 aeroports (METAR i TAF).

Les estacions disponibles són els punts grocs i vermells al mapa.

Posi el ratolí al punt desitjat per veure el nom de l'estació.

Feu clic per veure les observacions i els pronòstics meteorològics.

Per canviar el mapa: feu clic els botons verds amb una creu de color negre per apropar; al botó verd amb un guió per allunyar la imatge; o en les fletxes verdes per a mapes adjacents.


METAR-TAF: